Time;durP1;ratioP1;P1;durP2;ratioP2;P2;SDS_P1;SDS_P2;PMS_P1;PMS_P2;Temp;Humidity;BMP_temperature;BMP_pressure;BME280_temperature;BME280_humidity;BME280_pressure;Samples;Min_cycle;Max_cycle;Signal;HPM_P1;HPM_P2
2022/03/04 00:01:28;;;;;;;28.98;12.30;;;1.90;99.90;;;;;;5038055;23;1116977;-82
2022/03/04 00:03:53;;;;;;;35.00;13.00;;;1.60;99.90;;;;;;5061065;23;20403;-82
2022/03/04 00:06:26;;;;;;;28.92;13.00;;;1.50;99.90;;;;;;5093345;23;20135;-82
2022/03/04 00:08:52;;;;;;;30.17;12.85;;;1.50;99.90;;;;;;5090889;22;20140;-82
2022/03/04 00:11:21;;;;;;;32.80;13.65;;;1.40;99.90;;;;;;5102391;22;20115;-82
2022/03/04 00:13:47;;;;;;;32.45;12.85;;;1.40;99.90;;;;;;5091974;22;20106;-82
2022/03/04 00:16:13;;;;;;;30.17;13.10;;;1.40;99.90;;;;;;5094338;22;20418;-82
2022/03/04 00:18:38;;;;;;;28.92;12.63;;;1.30;99.90;;;;;;5071839;22;20055;-82
2022/03/04 00:21:04;;;;;;;28.30;12.32;;;1.30;99.90;;;;;;5079927;22;20040;-82
2022/03/04 00:23:31;;;;;;;29.85;13.23;;;1.30;99.90;;;;;;5080314;22;20410;-82
2022/03/04 00:25:57;;;;;;;29.25;12.25;;;1.30;99.90;;;;;;5072321;23;20044;-82
2022/03/04 00:28:23;;;;;;;33.85;13.27;;;1.70;99.90;;;;;;5088183;22;20059;-82
2022/03/04 00:30:49;;;;;;;30.45;13.25;;;1.20;99.90;;;;;;5070872;22;20078;-82
2022/03/04 00:33:21;;;;;;;30.00;12.90;;;1.10;99.90;;;;;;5079584;23;20047;-82
2022/03/04 00:35:46;;;;;;;29.48;12.40;;;1.10;99.90;;;;;;5081181;22;20116;-82
2022/03/04 00:38:12;;;;;;;29.65;13.32;;;1.10;99.90;;;;;;5060352;23;20151;-82
2022/03/04 00:40:38;;;;;;;29.92;12.85;;;1.00;99.90;;;;;;5063541;22;20101;-82
2022/03/04 00:43:03;;;;;;;29.67;12.13;;;1.00;99.90;;;;;;5113685;22;20502;-82
2022/03/04 00:45:29;;;;;;;28.95;11.85;;;1.40;99.90;;;;;;5089553;22;20052;-82
2022/03/04 00:47:55;;;;;;;33.10;12.63;;;1.00;99.90;;;;;;5071565;23;20457;-82
2022/03/04 00:50:21;;;;;;;29.83;12.73;;;0.90;99.90;;;;;;5079688;22;20059;-82
2022/03/04 00:52:47;;;;;;;29.60;12.13;;;0.90;99.90;;;;;;5065420;22;20040;-82
2022/03/04 00:55:13;;;;;;;27.73;11.55;;;0.90;99.90;;;;;;5076383;23;20410;-82
2022/03/04 00:57:39;;;;;;;30.38;13.32;;;0.90;99.90;;;;;;5069163;22;20102;-82
2022/03/04 01:00:06;;;;;;;29.05;11.95;;;0.80;99.90;;;;;;5070033;23;20049;-82
2022/03/04 01:02:31;;;;;;;28.70;11.85;;;0.80;99.90;;;;;;5084196;22;20147;-82
2022/03/04 01:04:57;;;;;;;28.50;12.18;;;0.80;99.90;;;;;;5068487;23;20499;-81
2022/03/04 01:07:34;;;;;;;31.27;12.68;;;1.10;99.90;;;;;;5070347;23;20059;-81
2022/03/04 01:09:59;;;;;;;28.90;12.05;;;0.70;99.90;;;;;;5071863;22;20051;-81
2022/03/04 01:12:25;;;;;;;27.23;11.07;;;0.70;99.90;;;;;;5067126;22;20074;-82
2022/03/04 01:14:53;;;;;;;28.08;12.13;;;0.70;99.90;;;;;;5066777;23;20739;-81
2022/03/04 01:17:19;;;;;;;26.92;11.43;;;0.60;99.90;;;;;;5063919;23;20133;-82
2022/03/04 01:19:45;;;;;;;27.25;12.30;;;0.60;99.90;;;;;;5073383;23;20072;-81
2022/03/04 01:22:10;;;;;;;24.67;11.30;;;0.60;99.90;;;;;;5071604;23;20056;-81
2022/03/04 01:24:36;;;;;;;24.35;10.70;;;1.10;99.90;;;;;;5082723;23;20453;-81
2022/03/04 01:27:02;;;;;;;27.27;11.57;;;1.30;99.90;;;;;;5067556;23;20132;-81
2022/03/04 01:29:28;;;;;;;26.27;11.60;;;0.50;99.90;;;;;;5069275;23;20056;-82
2022/03/04 01:31:53;;;;;;;23.50;10.70;;;0.90;99.90;;;;;;5064205;23;20053;-81
2022/03/04 01:36:52;;;;;;;27.77;12.05;;;0.50;99.90;;;;;;5033334;23;20053;-81
2022/03/04 01:39:19;;;;;;;25.70;11.00;;;0.50;99.90;;;;;;5054915;23;20511;-82
2022/03/04 01:41:45;;;;;;;26.80;10.73;;;0.40;99.90;;;;;;5064226;22;20072;-82
2022/03/04 01:44:11;;;;;;;23.98;10.27;;;0.40;99.90;;;;;;5065658;23;20101;-81
2022/03/04 01:46:36;;;;;;;22.48;10.80;;;0.40;99.90;;;;;;5077713;22;20045;-81
2022/03/04 01:49:03;;;;;;;26.52;10.90;;;0.40;99.90;;;;;;5056366;23;20147;-81
2022/03/04 01:51:29;;;;;;;23.13;10.60;;;0.40;99.90;;;;;;5061657;22;20056;-82
2022/03/04 01:53:55;;;;;;;26.77;10.43;;;0.30;99.90;;;;;;5061988;23;20529;-81
2022/03/04 01:56:21;;;;;;;27.30;9.52;;;0.30;99.90;;;;;;5044135;23;20054;-82
2022/03/04 01:58:47;;;;;;;25.45;10.23;;;0.30;99.90;;;;;;5038766;23;20152;-81
2022/03/04 02:01:13;;;;;;;21.83;9.07;;;0.30;99.90;;;;;;5059478;22;20456;-82
2022/03/04 02:03:39;;;;;;;27.30;10.68;;;0.30;99.90;;;;;;5049336;23;20053;-82
2022/03/04 02:06:04;;;;;;;25.42;9.63;;;0.30;99.90;;;;;;5058334;23;20426;-81
2022/03/04 02:08:30;;;;;;;22.27;9.75;;;0.20;99.90;;;;;;5059667;22;20045;-82
2022/03/04 02:10:56;;;;;;;19.48;8.75;;;0.20;99.90;;;;;;5051092;23;20442;-82
2022/03/04 02:13:25;;;;;;;23.30;9.73;;;0.20;99.90;;;;;;5067077;22;20415;31
2022/03/04 02:15:50;;;;;;;22.95;9.77;;;0.20;99.90;;;;;;5046439;22;20059;-81
2022/03/04 02:18:23;;;;;;;22.83;9.52;;;0.20;99.90;;;;;;5047009;23;20056;-82
2022/03/04 02:20:52;;;;;;;23.63;9.85;;;0.10;99.90;;;;;;5069391;22;20395;-81
2022/03/04 02:23:25;;;;;;;22.83;9.60;;;0.20;99.90;;;;;;5059424;23;20053;-82
2022/03/04 02:25:51;;;;;;;22.48;10.20;;;0.90;99.90;;;;;;5081393;22;20048;-82
2022/03/04 02:28:24;;;;;;;24.23;10.15;;;0.50;99.90;;;;;;5060592;23;20041;-82
2022/03/04 02:30:50;;;;;;;23.58;10.07;;;0.10;99.90;;;;;;5058863;22;20088;-81
2022/03/04 02:33:21;;;;;;;24.27;10.18;;;0.40;99.90;;;;;;5051291;23;20075;-82
2022/03/04 02:35:48;;;;;;;22.33;10.45;;;0.10;99.90;;;;;;5070881;22;20056;-81
2022/03/04 02:38:13;;;;;;;24.92;10.13;;;0.10;99.90;;;;;;5049102;23;20060;-82
2022/03/04 02:40:39;;;;;;;22.23;9.15;;;0.40;99.90;;;;;;5056871;22;20052;-82
2022/03/04 02:43:06;;;;;;;22.80;9.20;;;0.40;99.90;;;;;;5046236;23;20426;-81
2022/03/04 02:45:32;;;;;;;20.73;8.50;;;0.00;99.90;;;;;;5063057;23;20053;-82
2022/03/04 02:47:58;;;;;;;21.25;9.68;;;0.00;99.90;;;;;;5047073;22;20057;-81
2022/03/04 02:50:27;;;;;;;20.73;9.45;;;0.00;99.90;;;;;;5070892;23;20065;31
2022/03/04 02:52:53;;;;;;;21.13;8.63;;;-0.10;99.90;;;;;;4985703;23;20049;-81
2022/03/04 02:55:22;;;;;;;25.58;10.18;;;-0.10;99.90;;;;;;5039384;23;20107;-82
2022/03/04 02:57:48;;;;;;;24.17;9.25;;;-0.10;99.90;;;;;;5052253;23;20063;-82
2022/03/04 03:00:16;;;;;;;25.38;10.45;;;-0.10;99.90;;;;;;5043334;23;20080;-82
2022/03/04 03:02:43;;;;;;;21.55;9.13;;;-0.10;99.90;;;;;;5038070;23;20389;-81
2022/03/04 03:05:09;;;;;;;23.92;9.77;;;-0.10;99.90;;;;;;5037634;23;20057;-82
2022/03/04 03:07:35;;;;;;;24.58;9.63;;;0.60;99.90;;;;;;5042721;23;20049;-81
2022/03/04 03:10:02;;;;;;;21.38;9.38;;;-0.20;99.90;;;;;;5048052;23;20045;-82
2022/03/04 03:12:28;;;;;;;22.90;9.15;;;0.30;99.90;;;;;;5047220;23;20050;-82
2022/03/04 03:14:54;;;;;;;23.05;9.85;;;-0.20;99.90;;;;;;5046772;23;20042;-82
2022/03/04 03:17:24;;;;;;;23.05;9.77;;;-0.30;99.90;;;;;;5047740;23;20045;-82
2022/03/04 03:19:49;;;;;;;24.58;11.35;;;-0.30;99.90;;;;;;5060802;22;20080;-82
2022/03/04 03:22:22;;;;;;;25.10;11.00;;;-0.30;99.90;;;;;;5036460;23;20079;-82
2022/03/04 03:24:48;;;;;;;23.20;10.25;;;-0.30;99.90;;;;;;5055592;23;20101;-81
2022/03/04 03:27:14;;;;;;;28.90;9.60;;;-0.20;99.90;;;;;;5072611;23;20081;-82
2022/03/04 03:29:40;;;;;;;22.23;10.35;;;-0.30;99.90;;;;;;5069086;22;20117;-82
2022/03/04 03:32:06;;;;;;;26.10;10.93;;;-0.40;99.90;;;;;;5069057;23;20047;-81
2022/03/04 03:34:33;;;;;;;26.05;10.30;;;-0.40;99.90;;;;;;5061961;23;20068;-82
2022/03/04 03:36:58;;;;;;;26.60;10.45;;;-0.40;99.90;;;;;;5066744;23;20045;-82
2022/03/04 03:39:24;;;;;;;27.45;10.38;;;-0.40;99.90;;;;;;5044746;28;20107;-82
2022/03/04 03:41:50;;;;;;;26.63;10.70;;;-0.40;99.90;;;;;;5063418;23;20048;-82
2022/03/04 03:44:21;;;;;;;27.00;10.73;;;-0.50;99.90;;;;;;5064246;23;20048;-82
2022/03/04 03:46:47;;;;;;;25.30;11.10;;;-0.50;99.90;;;;;;5051344;23;20044;-81
2022/03/04 03:49:13;;;;;;;29.08;10.98;;;-0.50;99.90;;;;;;5075809;22;20494;-82
2022/03/04 03:51:39;;;;;;;27.63;11.15;;;-0.60;99.90;;;;;;5051910;23;20083;-82
2022/03/04 03:54:05;;;;;;;25.25;11.07;;;-0.60;99.90;;;;;;5059495;23;20074;-82
2022/03/04 03:56:30;;;;;;;26.70;10.95;;;-0.60;99.90;;;;;;5068257;28;20064;-82
2022/03/04 03:58:56;;;;;;;26.60;11.02;;;-0.60;99.90;;;;;;5068524;28;20043;-82
2022/03/04 04:03:48;;;;;;;25.48;10.90;;;-0.70;99.90;;;;;;5075028;22;20142;-82
2022/03/04 04:06:14;;;;;;;27.20;11.15;;;-0.70;99.90;;;;;;5069462;23;20395;-82
2022/03/04 04:08:40;;;;;;;25.90;10.95;;;-0.70;99.90;;;;;;5067506;28;20390;-82
2022/03/04 04:11:06;;;;;;;25.38;10.95;;;-0.70;99.90;;;;;;5063812;23;20075;-82
2022/03/04 04:13:32;;;;;;;29.77;11.23;;;-0.80;99.90;;;;;;5045000;28;20045;-82
2022/03/04 04:15:58;;;;;;;29.98;11.48;;;-0.80;99.90;;;;;;5067525;23;20139;-82
2022/03/04 04:18:23;;;;;;;29.35;11.65;;;-0.80;99.90;;;;;;5084569;28;20059;-82
2022/03/04 04:20:49;;;;;;;29.85;11.57;;;-0.80;99.90;;;;;;5083582;22;20064;-81
2022/03/04 04:23:15;;;;;;;28.98;11.75;;;-0.80;99.90;;;;;;5043441;28;20045;-82
2022/03/04 04:25:40;;;;;;;25.95;11.55;;;-0.90;99.90;;;;;;5083548;22;20095;-82
2022/03/04 04:28:06;;;;;;;30.83;11.80;;;-0.90;99.90;;;;;;5044267;28;20102;-82
2022/03/04 04:30:32;;;;;;;27.55;10.98;;;-0.90;99.90;;;;;;5071120;23;20052;-82
2022/03/04 04:32:58;;;;;;;31.17;11.55;;;-0.60;99.90;;;;;;5057747;23;20049;-82
2022/03/04 04:35:24;;;;;;;29.58;12.40;;;-0.90;99.90;;;;;;5043911;28;20143;-82
2022/03/04 04:37:50;;;;;;;28.63;11.77;;;-1.00;99.90;;;;;;5050307;23;21644;-82
2022/03/04 04:42:41;;;;;;;27.90;11.48;;;-1.00;99.90;;;;;;5070857;22;20049;-82
2022/03/04 04:45:08;;;;;;;29.17;12.02;;;-1.00;99.90;;;;;;5067238;23;20052;-81
2022/03/04 04:47:34;;;;;;;31.60;12.82;;;-1.00;99.90;;;;;;5070430;22;20061;-82
2022/03/04 04:50:00;;;;;;;27.38;10.82;;;-1.10;99.90;;;;;;5068446;23;20049;-82
2022/03/04 04:52:25;;;;;;;28.92;11.93;;;-1.00;99.90;;;;;;5064574;23;20160;-82
2022/03/04 04:54:51;;;;;;;27.73;11.43;;;-0.50;99.90;;;;;;5076404;23;20053;-82
2022/03/04 04:57:17;;;;;;;33.10;12.65;;;-1.10;99.90;;;;;;5065807;23;20060;-82
2022/03/04 04:59:43;;;;;;;28.92;13.10;;;-1.10;99.90;;;;;;5067868;22;20053;-82
2022/03/04 05:02:08;;;;;;;31.30;12.25;;;-1.10;99.90;;;;;;5060003;28;20057;-81
2022/03/04 05:04:34;;;;;;;35.00;12.75;;;-1.10;99.90;;;;;;5060170;28;20037;-82
2022/03/04 05:07:02;;;;;;;29.55;11.35;;;-1.20;99.90;;;;;;5043385;28;20054;-82
2022/03/04 05:09:28;;;;;;;29.73;11.90;;;-1.20;99.90;;;;;;5043383;28;20108;-82
2022/03/04 05:11:55;;;;;;;32.30;13.48;;;-1.20;99.90;;;;;;5080336;23;20075;-82
2022/03/04 05:16:51;;;;;;;31.30;11.80;;;-1.20;99.90;;;;;;5077221;23;20052;-81
2022/03/04 05:19:16;;;;;;;32.95;12.32;;;-1.20;99.90;;;;;;5046702;28;20047;-82
2022/03/04 05:21:42;;;;;;;31.60;11.95;;;-1.20;99.90;;;;;;5052571;22;20078;-82
2022/03/04 05:24:11;;;;;;;33.67;12.73;;;-1.30;99.90;;;;;;5051028;23;20048;-81
2022/03/04 05:26:39;;;;;;;30.60;12.45;;;-1.30;99.90;;;;;;5054417;22;20058;-82
2022/03/04 05:29:10;;;;;;;30.30;11.95;;;-1.40;99.90;;;;;;5074750;23;20500;-81
2022/03/04 05:31:41;;;;;;;27.05;11.77;;;-1.40;99.90;;;;;;5088960;22;20042;-82
2022/03/04 05:34:07;;;;;;;30.45;12.88;;;-1.50;99.90;;;;;;5048423;23;20091;-81
2022/03/04 05:36:35;;;;;;;30.02;12.25;;;-1.50;99.90;;;;;;5052715;23;20045;-82
2022/03/04 05:39:01;;;;;;;30.98;11.70;;;-1.50;99.90;;;;;;5046408;28;20067;-81
2022/03/04 05:41:27;;;;;;;31.38;12.63;;;-1.60;99.90;;;;;;5057315;23;20037;-82
2022/03/04 05:43:52;;;;;;;30.50;12.02;;;-1.30;99.90;;;;;;5059394;28;20061;-82
2022/03/04 05:46:18;;;;;;;32.58;12.77;;;-1.60;99.90;;;;;;5056243;23;20048;-82
2022/03/04 05:48:44;;;;;;;30.77;12.32;;;-1.60;99.90;;;;;;5052260;23;20052;-82
2022/03/04 05:51:10;;;;;;;31.83;13.07;;;-0.70;99.90;;;;;;5045737;28;20083;-82
2022/03/04 05:53:37;;;;;;;32.20;11.85;;;-1.60;99.90;;;;;;5045675;28;20072;-82
2022/03/04 05:56:07;;;;;;;31.73;13.13;;;-1.70;99.90;;;;;;5044919;28;20131;-82
2022/03/04 05:58:34;;;;;;;31.38;12.70;;;-1.60;99.90;;;;;;5059865;23;20054;-82
2022/03/04 06:01:00;;;;;;;32.40;12.93;;;-1.60;99.90;;;;;;5084553;28;20061;-82
2022/03/04 06:03:26;;;;;;;28.85;12.50;;;-1.70;99.90;;;;;;5085293;28;20123;-82
2022/03/04 06:05:52;;;;;;;32.15;12.23;;;-1.40;99.90;;;;;;5083596;23;20481;-82
2022/03/04 06:08:18;;;;;;;33.78;13.32;;;-1.70;99.90;;;;;;5077980;28;20052;-82
2022/03/04 06:10:44;;;;;;;30.40;12.82;;;-1.70;99.90;;;;;;5060676;28;20422;-82
2022/03/04 06:13:09;;;;;;;34.35;12.77;;;-1.80;99.90;;;;;;5080648;28;20437;-82
2022/03/04 06:15:35;;;;;;;36.75;13.50;;;-1.70;99.90;;;;;;5045299;28;20033;-82
2022/03/04 06:18:01;;;;;;;33.58;13.15;;;-1.30;99.90;;;;;;5078550;28;20086;-82
2022/03/04 06:20:27;;;;;;;34.47;12.93;;;-1.80;99.90;;;;;;5045363;28;20479;-82
2022/03/04 06:22:53;;;;;;;36.10;13.20;;;-1.60;99.90;;;;;;5078135;28;20140;-82
2022/03/04 06:25:19;;;;;;;34.85;13.80;;;-1.80;99.90;;;;;;5061693;28;20080;-83
2022/03/04 06:27:57;;;;;;;33.42;12.95;;;-1.80;99.90;;;;;;5067962;28;20044;-82
2022/03/04 06:30:27;;;;;;;37.80;14.48;;;-1.80;99.90;;;;;;5055374;28;20487;-82
2022/03/04 06:35:37;;;;;;;39.22;14.57;;;-1.80;99.90;;;;;;5079770;28;20052;-82
2022/03/04 06:38:03;;;;;;;41.13;15.48;;;-1.80;99.90;;;;;;5062334;28;20487;-82
2022/03/04 06:40:29;;;;;;;38.50;13.57;;;-1.80;99.90;;;;;;5061621;28;20472;-82
2022/03/04 06:42:54;;;;;;;42.38;14.65;;;-1.80;99.90;;;;;;5063627;28;20067;-82
2022/03/04 06:45:20;;;;;;;41.17;14.75;;;-1.70;99.90;;;;;;5083404;28;20045;-82
2022/03/04 06:47:46;;;;;;;42.30;15.07;;;-1.70;99.90;;;;;;5067777;28;20117;-82
2022/03/04 06:50:11;;;;;;;43.67;15.73;;;-1.70;99.90;;;;;;5080713;28;20060;-83
2022/03/04 06:52:37;;;;;;;46.45;16.08;;;-1.30;99.90;;;;;;5079420;28;20045;-83
2022/03/04 06:55:04;;;;;;;43.75;15.52;;;-1.00;99.90;;;;;;5079349;28;20063;-82
2022/03/04 06:57:29;;;;;;;46.00;15.65;;;-1.60;99.90;;;;;;5079065;28;20037;-82
2022/03/04 06:59:55;;;;;;;41.58;16.20;;;-1.60;99.90;;;;;;5078157;28;20052;-82
2022/03/04 07:02:21;;;;;;;47.78;16.80;;;-1.60;99.90;;;;;;5062326;28;20059;-82
2022/03/04 07:04:48;;;;;;;43.80;16.45;;;-1.50;99.90;;;;;;5062136;28;20074;-82
2022/03/04 07:07:14;;;;;;;47.10;16.80;;;-1.50;99.90;;;;;;5078594;28;20083;-83
2022/03/04 07:09:40;;;;;;;39.03;15.13;;;-1.40;99.90;;;;;;5078359;28;20457;-82
2022/03/04 07:12:06;;;;;;;42.72;16.02;;;-1.40;99.90;;;;;;5077975;28;20082;-82
2022/03/04 07:14:32;;;;;;;44.08;17.02;;;-1.40;99.90;;;;;;5078725;28;20510;-83
2022/03/04 07:16:57;;;;;;;52.50;16.80;;;-1.40;99.90;;;;;;5062154;28;20044;-83
2022/03/04 07:19:23;;;;;;;44.92;16.75;;;-1.40;99.90;;;;;;5079579;28;20048;-82
2022/03/04 07:21:48;;;;;;;47.28;16.90;;;-1.30;99.90;;;;;;5078031;28;20078;-82
2022/03/04 07:24:15;;;;;;;45.15;17.20;;;-1.20;99.90;;;;;;5060852;28;20048;-82
2022/03/04 07:26:40;;;;;;;46.35;17.38;;;-1.20;99.90;;;;;;5078306;28;20047;-82
2022/03/04 07:29:06;;;;;;;48.05;18.13;;;-1.10;99.90;;;;;;5062126;28;20045;-82
2022/03/04 07:31:32;;;;;;;46.75;17.77;;;-1.10;99.90;;;;;;5061162;28;20068;-82
2022/03/04 07:33:58;;;;;;;41.42;16.42;;;-1.10;99.90;;;;;;5061365;28;20048;-82
2022/03/04 07:36:23;;;;;;;44.65;16.80;;;-1.10;99.90;;;;;;5090674;23;20044;-83
2022/03/04 07:38:49;;;;;;;51.13;17.88;;;-1.00;99.90;;;;;;5084235;28;20067;-82
2022/03/04 07:41:15;;;;;;;44.53;16.52;;;-1.00;99.90;;;;;;5068130;28;20094;-82
2022/03/04 07:43:40;;;;;;;47.40;18.17;;;-1.00;99.90;;;;;;5102078;28;20043;-83
2022/03/04 07:46:06;;;;;;;42.67;17.10;;;-1.00;99.90;;;;;;5101455;28;20048;-82
2022/03/04 07:48:32;;;;;;;40.10;16.95;;;-0.90;99.90;;;;;;5100311;28;20048;-82
2022/03/04 07:50:57;;;;;;;45.30;17.58;;;-0.40;99.90;;;;;;5084684;28;20044;-82
2022/03/04 07:53:23;;;;;;;42.97;16.33;;;-0.90;99.90;;;;;;5084523;28;20111;-82
2022/03/04 07:55:49;;;;;;;42.92;16.75;;;-0.80;99.90;;;;;;5102385;28;20048;-83
2022/03/04 07:58:14;;;;;;;49.25;17.27;;;-0.80;99.90;;;;;;5103253;28;20043;-83
2022/03/04 08:00:40;;;;;;;43.95;16.65;;;-0.70;99.90;;;;;;5102859;28;20047;-82
2022/03/04 08:03:05;;;;;;;42.35;16.55;;;-0.70;99.90;;;;;;5101537;28;20437;-82
2022/03/04 08:05:32;;;;;;;42.67;17.33;;;-0.70;99.90;;;;;;5084371;28;20070;-82
2022/03/04 08:07:57;;;;;;;43.83;16.98;;;-0.70;99.90;;;;;;5101233;28;20052;-83
2022/03/04 08:10:23;;;;;;;43.72;17.08;;;-0.50;99.90;;;;;;5084387;28;20372;-82
2022/03/04 08:12:49;;;;;;;46.72;17.20;;;-0.50;99.90;;;;;;5084969;28;20048;-82
2022/03/04 08:15:14;;;;;;;43.88;17.52;;;-0.40;99.90;;;;;;5101693;28;20047;-82
2022/03/04 08:17:41;;;;;;;42.22;16.23;;;-0.30;99.90;;;;;;5102095;28;20413;-82
2022/03/04 08:20:08;;;;;;;43.58;17.23;;;-0.30;99.90;;;;;;5101363;28;20051;-82
2022/03/04 08:22:33;;;;;;;47.25;17.58;;;-0.30;99.90;;;;;;5102682;28;20097;-82
2022/03/04 08:24:59;;;;;;;39.95;16.50;;;0.20;99.90;;;;;;5089327;28;20047;-82
2022/03/04 08:27:25;;;;;;;41.17;16.90;;;-0.10;99.90;;;;;;5095892;28;20047;-82
2022/03/04 08:29:51;;;;;;;42.47;17.42;;;0.00;99.90;;;;;;5111010;28;20475;-82
2022/03/04 08:32:17;;;;;;;42.90;15.60;;;0.00;99.90;;;;;;5104254;28;20044;-82
2022/03/04 08:34:42;;;;;;;39.75;16.80;;;0.10;99.90;;;;;;5102441;28;20111;-82
2022/03/04 08:37:08;;;;;;;37.78;15.82;;;0.10;99.90;;;;;;5102927;28;20059;-82
2022/03/04 08:39:34;;;;;;;37.85;16.52;;;0.20;99.90;;;;;;5085181;28;20047;-82
2022/03/04 08:42:00;;;;;;;37.90;16.65;;;0.10;99.90;;;;;;5084765;28;20040;-82
2022/03/04 08:44:25;;;;;;;40.50;16.00;;;0.30;99.90;;;;;;5102992;28;20051;-82
2022/03/04 08:46:51;;;;;;;34.55;14.77;;;0.30;99.90;;;;;;5103475;28;20069;-82
2022/03/04 08:49:19;;;;;;;36.88;15.65;;;0.20;99.90;;;;;;5123171;28;20036;-82
2022/03/04 08:51:45;;;;;;;36.50;14.68;;;0.20;99.90;;;;;;5123376;28;20114;-82
2022/03/04 08:54:11;;;;;;;37.15;16.00;;;0.10;99.90;;;;;;5087706;28;20059;-82
2022/03/04 08:56:37;;;;;;;34.92;14.15;;;0.30;99.90;;;;;;5087236;28;20040;-82
2022/03/04 08:59:03;;;;;;;36.30;15.35;;;0.20;99.90;;;;;;5123470;28;20390;-82
2022/03/04 09:01:29;;;;;;;37.80;15.77;;;0.30;99.90;;;;;;5104900;28;20485;-82
2022/03/04 09:03:55;;;;;;;40.20;15.68;;;0.40;99.90;;;;;;5104703;28;20054;-82
2022/03/04 09:06:21;;;;;;;36.85;15.52;;;0.40;99.90;;;;;;5088029;28;20119;-82
2022/03/04 09:08:47;;;;;;;39.72;15.32;;;0.40;99.90;;;;;;5104468;28;20074;-82
2022/03/04 09:11:13;;;;;;;35.35;15.23;;;0.40;99.90;;;;;;5104119;28;20074;-83
2022/03/04 09:13:38;;;;;;;39.03;16.15;;;0.40;99.90;;;;;;5122660;28;20040;-82
2022/03/04 09:16:04;;;;;;;35.38;16.27;;;0.50;99.90;;;;;;5104667;28;20047;-82
2022/03/04 09:18:30;;;;;;;37.97;15.90;;;0.60;99.90;;;;;;5122542;28;20048;-82
2022/03/04 09:20:57;;;;;;;34.60;15.05;;;0.70;99.90;;;;;;5122424;28;20043;-82
2022/03/04 09:23:22;;;;;;;35.83;15.10;;;0.70;99.90;;;;;;5122388;28;20088;-82
2022/03/04 09:25:49;;;;;;;34.65;16.30;;;0.80;99.90;;;;;;5103619;28;20036;-82
2022/03/04 09:28:15;;;;;;;35.72;16.13;;;1.00;99.90;;;;;;5086824;28;20065;-82
2022/03/04 09:30:41;;;;;;;36.25;15.00;;;1.00;99.90;;;;;;5087283;28;20043;-82
2022/03/04 09:33:07;;;;;;;35.15;15.90;;;1.10;99.90;;;;;;5121564;28;20047;-82
2022/03/04 09:35:33;;;;;;;31.92;14.40;;;1.30;99.90;;;;;;5104543;28;20048;-82
2022/03/04 09:38:00;;;;;;;34.17;15.15;;;1.30;99.90;;;;;;5103433;28;20089;-82
2022/03/04 09:40:25;;;;;;;36.60;15.43;;;1.40;99.90;;;;;;5124038;28;20036;-82
2022/03/04 09:42:54;;;;;;;34.42;14.82;;;1.60;99.90;;;;;;5110942;28;20122;-82
2022/03/04 09:45:19;;;;;;;34.40;14.25;;;1.50;99.90;;;;;;5109729;28;20036;-82
2022/03/04 09:47:46;;;;;;;32.15;16.08;;;1.40;99.90;;;;;;5129724;28;20043;-82
2022/03/04 09:50:16;;;;;;;32.83;14.77;;;1.40;99.90;;;;;;5122527;28;20478;-82
2022/03/04 09:52:42;;;;;;;33.53;14.85;;;1.40;99.90;;;;;;5104082;28;20134;-82
2022/03/04 09:55:08;;;;;;;31.85;14.77;;;1.30;99.90;;;;;;5087072;28;20079;-82
2022/03/04 09:57:35;;;;;;;33.92;14.75;;;1.50;99.90;;;;;;5102851;28;20043;-82
2022/03/04 10:00:01;;;;;;;34.15;15.27;;;1.80;99.90;;;;;;5103647;28;20047;-82
2022/03/04 10:02:31;;;;;;;34.30;15.38;;;1.50;99.90;;;;;;5086510;28;20039;-82
2022/03/04 10:04:59;;;;;;;33.83;15.00;;;1.50;99.90;;;;;;5087125;28;20091;-82
2022/03/04 10:07:25;;;;;;;33.78;15.30;;;1.60;99.90;;;;;;5103770;28;20050;-82
2022/03/04 10:09:51;;;;;;;32.65;14.75;;;2.40;99.90;;;;;;5121606;28;20417;-82
2022/03/04 10:12:19;;;;;;;34.58;14.35;;;1.90;99.90;;;;;;5086599;28;20046;-82
2022/03/04 10:15:03;;;;;;;34.25;14.65;;;2.10;99.90;;;;;;5086153;28;20040;-82
2022/03/04 10:17:29;;;;;;;32.88;15.05;;;2.20;99.90;;;;;;5085147;28;20054;-82
2022/03/04 10:19:57;;;;;;;28.90;13.38;;;2.40;99.90;;;;;;5086062;28;20107;-82
2022/03/04 10:22:32;;;;;;;28.73;13.10;;;2.60;99.90;;;;;;5086016;28;20138;-82
2022/03/04 10:24:58;;;;;;;28.55;12.98;;;2.60;99.90;;;;;;5085847;28;20047;-82
2022/03/04 10:27:24;;;;;;;26.27;12.60;;;3.40;99.90;;;;;;5085814;28;20043;-82
2022/03/04 10:29:50;;;;;;;26.30;13.00;;;2.80;99.90;;;;;;5103012;28;20043;-82
2022/03/04 10:32:22;;;;;;;26.80;12.85;;;2.90;99.90;;;;;;5077900;23;20041;-82
2022/03/04 10:34:54;;;;;;;26.40;12.95;;;2.90;99.90;;;;;;5045926;28;20566;-82
2022/03/04 10:37:21;;;;;;;24.45;12.40;;;3.20;99.90;;;;;;5062212;28;20078;-82
2022/03/04 10:40:01;;;;;;;24.15;11.40;;;3.40;99.90;;;;;;5062672;28;20040;-82
2022/03/04 10:42:45;;;;;;;20.55;10.20;;;3.40;99.90;;;;;;5062394;28;20365;-82
2022/03/04 10:45:24;;;;;;;21.63;10.85;;;3.60;99.90;;;;;;5079384;28;20106;-82
2022/03/04 10:47:53;;;;;;;21.60;10.77;;;3.60;99.90;;;;;;5045566;28;20044;-82
2022/03/04 10:50:26;;;;;;;21.17;11.32;;;3.70;99.90;;;;;;5078679;28;20492;-82
2022/03/04 10:52:57;;;;;;;25.17;12.07;;;3.90;99.90;;;;;;5079088;28;20049;-82
2022/03/04 10:55:35;;;;;;;19.70;10.27;;;4.00;99.90;;;;;;5079527;28;20127;-82
2022/03/04 10:58:05;;;;;;;21.73;11.18;;;4.10;99.90;;;;;;5062506;28;20044;-82
2022/03/04 11:00:36;;;;;;;21.85;10.85;;;4.30;99.90;;;;;;5081058;28;20044;-82
2022/03/04 11:03:03;;;;;;;20.10;10.30;;;4.50;99.90;;;;;;5079035;28;20048;-82
2022/03/04 11:05:29;;;;;;;19.83;10.95;;;4.60;99.90;;;;;;5078718;28;20079;-82
2022/03/04 11:07:55;;;;;;;23.38;12.25;;;4.70;99.90;;;;;;5060449;28;20045;-82
2022/03/04 11:10:21;;;;;;;19.73;11.13;;;5.10;99.90;;;;;;5080997;28;20040;-83
2022/03/04 11:12:50;;;;;;;17.95;9.73;;;5.00;99.90;;;;;;5081294;28;20052;-83
2022/03/04 11:15:18;;;;;;;20.85;11.10;;;5.10;99.90;;;;;;5082567;28;20078;-83
2022/03/04 11:17:46;;;;;;;21.48;11.88;;;5.70;99.90;;;;;;5064137;28;20045;-82
2022/03/04 11:20:12;;;;;;;20.13;10.75;;;5.40;99.90;;;;;;5083173;28;20055;-82
2022/03/04 11:22:40;;;;;;;19.70;10.32;;;5.40;99.90;;;;;;5082123;28;20052;-82
2022/03/04 11:25:12;;;;;;;19.48;10.52;;;5.60;99.90;;;;;;5083657;28;20045;-83
2022/03/04 11:27:43;;;;;;;19.42;10.60;;;5.60;99.90;;;;;;5084278;28;20090;-82
2022/03/04 11:30:29;;;;;;;19.92;10.15;;;5.70;99.90;;;;;;5083585;28;20580;-83
2022/03/04 11:33:05;;;;;;;;;;;5.90;99.90;;;;;;5072600;28;20075;-82
2022/03/04 11:35:35;;;;;;;;;;;6.00;99.90;;;;;;5082423;28;19959;-82
2022/03/04 11:38:01;;;;;;;18.85;10.48;;;6.00;99.90;;;;;;5065546;28;20019;-82
2022/03/04 11:40:33;;;;;;;19.25;10.35;;;6.20;99.90;;;;;;5081976;28;20060;-83
2022/03/04 11:42:58;;;;;;;20.63;10.88;;;6.20;99.90;;;;;;5082077;28;20102;-83
2022/03/04 11:45:35;;;;;;;19.75;10.70;;;6.30;99.90;;;;;;5082332;28;20037;-83
2022/03/04 11:48:08;;;;;;;20.60;11.07;;;6.50;99.90;;;;;;5065558;28;20048;-82
2022/03/04 11:50:47;;;;;;;18.60;10.13;;;6.50;99.90;;;;;;5065473;28;20471;-82
2022/03/04 11:53:24;;;;;;;18.55;10.75;;;6.60;99.90;;;;;;5082331;28;20037;-82
2022/03/04 11:56:12;;;;;;;18.77;11.13;;;6.70;99.90;;;;;;5065755;28;20098;-82
2022/03/04 11:58:56;;;;;;;19.88;10.02;;;6.80;99.90;;;;;;5082581;28;20425;-82
2022/03/04 12:01:31;;;;;;;16.92;9.80;;;6.80;99.90;;;;;;5105627;22;20060;-82
2022/03/04 12:04:13;;;;;;;16.17;9.57;;;7.10;99.90;;;;;;5049363;28;20048;-82
2022/03/04 12:06:39;;;;;;;17.15;9.05;;;7.00;99.90;;;;;;5065113;28;20510;-83
2022/03/04 12:09:28;;;;;;;16.13;9.23;;;7.20;99.90;;;;;;5067615;28;20058;-82
2022/03/04 12:12:12;;;;;;;16.98;9.45;;;7.40;99.90;;;;;;5074115;28;20037;-83
2022/03/04 12:14:51;;;;;;;16.20;9.63;;;7.80;99.90;;;;;;5054973;28;20048;-82
2022/03/04 12:17:17;;;;;;;19.08;9.77;;;8.00;99.90;;;;;;5085894;23;20121;-82
2022/03/04 12:19:43;;;;;;;18.13;9.52;;;7.90;99.90;;;;;;5048854;28;20067;-82
2022/03/04 12:22:14;;;;;;;17.27;10.27;;;8.50;99.90;;;;;;5049251;28;20103;-82
2022/03/04 12:24:54;;;;;;;17.45;9.43;;;8.10;99.90;;;;;;5065199;28;20048;-83
2022/03/04 12:27:39;;;;;;;16.63;9.57;;;8.00;99.90;;;;;;5065711;28;20119;-82
2022/03/04 12:30:21;;;;;;;18.55;10.55;;;8.30;99.90;;;;;;5048454;28;20048;-82
2022/03/04 12:32:52;;;;;;;15.52;9.27;;;8.20;99.90;;;;;;5098924;28;20087;-82
2022/03/04 12:35:21;;;;;;;17.27;9.90;;;9.00;99.90;;;;;;5048134;28;20044;-82
2022/03/04 12:37:47;;;;;;;16.95;9.35;;;9.10;99.90;;;;;;5048488;28;20040;-82
2022/03/04 12:40:13;;;;;;;17.05;9.57;;;8.70;99.90;;;;;;5065717;28;20075;-82
2022/03/04 12:42:39;;;;;;;16.88;9.30;;;9.40;99.90;;;;;;5081545;28;20036;-82
2022/03/04 12:45:09;;;;;;;14.05;8.35;;;9.50;99.90;;;;;;5064816;28;20387;-82
2022/03/04 12:47:36;;;;;;;15.90;9.65;;;9.40;99.90;;;;;;5065165;28;20056;-83
2022/03/04 12:50:04;;;;;;;16.83;9.60;;;9.50;99.90;;;;;;5082236;28;20119;-83